Time;durP1;ratioP1;P1;durP2;ratioP2;P2;SDS_P1;SDS_P2;PMS_P1;PMS_P2;Temp;Humidity;BMP_temperature;BMP_pressure;BME280_temperature;BME280_humidity;BME280_pressure;Samples;Min_cycle;Max_cycle;Signal;HPM_P1;HPM_P2
2022/03/02 00:01:19;;;;;;;11.20;4.00;;;;;;;;;;10259881;28;20549;-71
2022/03/02 00:06:24;;;;;;;16.35;5.07;;;;;;;;;;10280199;28;20065;-72
2022/03/02 00:11:27;;;;;;;7.43;3.43;;;;;;;;;;10289447;28;20035;-70
2022/03/02 00:16:30;;;;;;;8.73;3.50;;;;;;;;;;10269592;28;20102;-69
2022/03/02 00:21:35;;;;;;;6.50;3.00;;;;;;;;;;10282573;28;20050;-69
2022/03/02 00:26:38;;;;;;;9.67;4.00;;;;;;;;;;10273717;28;20112;-67
2022/03/02 00:31:41;;;;;;;8.30;3.53;;;;;;;;;;10260666;28;20046;-68
2022/03/02 00:36:45;;;;;;;4.03;1.63;;;;;;;;;;10285362;28;20074;-69
2022/03/02 00:41:48;;;;;;;9.93;2.60;;;;;;;;;;10280547;28;20042;-69
2022/03/02 00:46:51;;;;;;;11.27;4.47;;;;;;;;;;10263166;28;20077;-69
2022/03/02 00:51:55;;;;;;;11.57;4.23;;;;;;;;;;10282835;28;20039;-69
2022/03/02 00:56:58;;;;;;;6.43;1.50;;;;;;;;;;10261950;28;20058;-71
2022/03/02 01:02:01;;;;;;;11.43;4.97;;;;;;;;;;10279673;28;20117;-69
2022/03/02 01:07:06;;;;;;;15.53;4.07;;;;;;;;;;10256867;28;20074;-70
2022/03/02 01:12:08;;;;;;;;;;;;;;;;;;10264615;28;20042;-69
2022/03/02 01:17:11;;;;;;;11.27;3.67;;;;;;;;;;10284963;28;20004;-69
2022/03/02 01:22:17;;;;;;;9.30;4.00;;;;;;;;;;10266982;28;20035;-69
2022/03/02 01:27:20;;;;;;;6.07;2.73;;;;;;;;;;10268944;28;20042;-70
2022/03/02 01:32:23;;;;;;;7.37;3.50;;;;;;;;;;10265625;28;20134;-70
2022/03/02 01:37:27;;;;;;;8.90;3.50;;;;;;;;;;10266202;28;20073;-69
2022/03/02 01:42:31;;;;;;;6.57;2.80;;;;;;;;;;10257913;28;20053;-70
2022/03/02 01:47:33;;;;;;;14.93;4.27;;;;;;;;;;10278685;28;20046;-70
2022/03/02 01:52:38;;;;;;;11.93;4.83;;;;;;;;;;10278194;28;20065;-71
2022/03/02 01:57:41;;;;;;;10.73;4.07;;;;;;;;;;10264161;28;20054;-70
2022/03/02 02:02:44;;;;;;;9.40;3.47;;;;;;;;;;10279304;28;20054;-70
2022/03/02 02:07:48;;;;;;;13.30;4.37;;;;;;;;;;10264062;28;20043;-70
2022/03/02 02:12:52;;;;;;;13.27;4.17;;;;;;;;;;10280723;28;20051;-70
2022/03/02 02:17:56;;;;;;;8.82;3.30;;;;;;;;;;10263887;28;20356;-70
2022/03/02 02:23:01;;;;;;;11.95;4.20;;;;;;;;;;10278271;28;20043;-70
2022/03/02 02:28:06;;;;;;;10.27;3.57;;;;;;;;;;10279166;28;20109;-69
2022/03/02 02:33:12;;;;;;;8.93;3.80;;;;;;;;;;10277464;28;20031;-69
2022/03/02 02:38:18;;;;;;;10.43;3.77;;;;;;;;;;10275937;28;20287;-70
2022/03/02 02:43:22;;;;;;;10.03;3.63;;;;;;;;;;10261365;28;20357;-70
2022/03/02 02:48:25;;;;;;;8.97;2.93;;;;;;;;;;10275468;28;20093;-70
2022/03/02 02:53:29;;;;;;;6.73;3.37;;;;;;;;;;10268528;28;20109;-69
2022/03/02 02:58:33;;;;;;;11.90;4.17;;;;;;;;;;10275624;28;20058;-69
2022/03/02 03:03:36;;;;;;;7.72;3.42;;;;;;;;;;10274712;28;20038;-71
2022/03/02 03:08:41;;;;;;;4.40;1.53;;;;;;;;;;10278482;28;20039;-70
2022/03/02 03:13:43;;;;;;;;;;;;;;;;;;10277392;28;20047;-69
2022/03/02 03:18:47;;;;;;;2.43;1.30;;;;;;;;;;10274510;28;20432;-69
2022/03/02 03:23:51;;;;;;;6.30;2.83;;;;;;;;;;10259983;28;20085;-69
2022/03/02 03:28:55;;;;;;;15.27;4.20;;;;;;;;;;10276384;28;20059;-69
2022/03/02 03:33:57;;;;;;;6.70;3.43;;;;;;;;;;10261389;28;20632;-69
2022/03/02 03:39:03;;;;;;;7.28;2.88;;;;;;;;;;10252614;28;20049;-70
2022/03/02 03:44:06;;;;;;;1.87;1.60;;;;;;;;;;10262020;28;20499;-69
2022/03/02 03:49:10;;;;;;;12.17;3.63;;;;;;;;;;10276405;28;20097;-69
2022/03/02 03:54:14;;;;;;;4.70;2.42;;;;;;;;;;10277084;28;20031;-71
2022/03/02 03:59:17;;;;;;;;;;;;;;;;;;10257326;28;21341;-71
2022/03/02 04:04:20;;;;;;;7.60;3.07;;;;;;;;;;10259326;28;20006;-70
2022/03/02 04:09:24;;;;;;;3.47;1.80;;;;;;;;;;10272853;28;20035;-71
2022/03/02 04:14:28;;;;;;;5.00;2.30;;;;;;;;;;10279670;28;20484;-70
2022/03/02 04:19:30;;;;;;;3.83;1.77;;;;;;;;;;10257930;28;20070;-69
2022/03/02 04:24:35;;;;;;;6.20;2.33;;;;;;;;;;10277680;28;20035;-71
2022/03/02 04:29:38;;;;;;;10.00;4.00;;;;;;;;;;10258120;28;20098;-69
2022/03/02 04:34:41;;;;;;;8.60;3.67;;;;;;;;;;10273487;28;20043;-72
2022/03/02 04:39:45;;;;;;;10.73;4.17;;;;;;;;;;10274826;28;20051;-70
2022/03/02 04:44:48;;;;;;;1.13;1.00;;;;;;;;;;10254035;28;20040;-70
2022/03/02 04:49:52;;;;;;;3.78;1.00;;;;;;;;;;10282880;28;20054;-71
2022/03/02 04:55:06;;;;;;;9.68;3.42;;;;;;;;;;10275427;28;20047;-71
2022/03/02 05:00:10;;;;;;;14.97;3.33;;;;;;;;;;10262945;28;20051;-70
2022/03/02 05:05:14;;;;;;;4.43;1.85;;;;;;;;;;10282384;28;20097;-69
2022/03/02 05:10:20;;;;;;;1.95;0.65;;;;;;;;;;10261555;28;20129;-69
2022/03/02 05:15:23;;;;;;;4.70;2.97;;;;;;;;;;10287279;28;20150;-70
2022/03/02 05:20:27;;;;;;;3.78;1.38;;;;;;;;;;10264592;28;20039;-69
2022/03/02 05:25:31;;;;;;;15.70;4.63;;;;;;;;;;10262563;28;20153;-70
2022/03/02 05:30:35;;;;;;;11.60;3.67;;;;;;;;;;10263035;28;20074;-69
2022/03/02 05:35:38;;;;;;;5.67;2.83;;;;;;;;;;10265982;28;20043;-70
2022/03/02 05:40:42;;;;;;;9.27;3.77;;;;;;;;;;10264639;28;20059;-69
2022/03/02 05:45:45;;;;;;;12.13;3.60;;;;;;;;;;10258997;28;20105;-69
2022/03/02 05:50:49;;;;;;;1.30;1.20;;;;;;;;;;10261684;28;20550;-70
2022/03/02 05:55:53;;;;;;;4.23;1.90;;;;;;;;;;10278072;28;20291;-70
2022/03/02 06:00:56;;;;;;;4.53;1.65;;;;;;;;;;10287780;23;20070;-67
2022/03/02 06:06:00;;;;;;;9.85;2.42;;;;;;;;;;10285470;28;20399;-70
2022/03/02 06:11:04;;;;;;;5.97;2.37;;;;;;;;;;10248578;28;20069;-68
2022/03/02 06:16:07;;;;;;;4.15;2.08;;;;;;;;;;10269741;28;20086;-69
2022/03/02 06:21:14;;;;;;;3.33;2.00;;;;;;;;;;10233126;28;20476;-70
2022/03/02 06:26:19;;;;;;;4.40;1.13;;;;;;;;;;10257579;28;20310;-69
2022/03/02 06:31:22;;;;;;;2.50;1.47;;;;;;;;;;10226501;28;20039;-69
2022/03/02 06:36:25;;;;;;;7.67;3.00;;;;;;;;;;10244306;28;20063;-71
2022/03/02 06:41:31;;;;;;;9.77;3.30;;;;;;;;;;10227606;28;20444;-68
2022/03/02 06:46:41;;;;;;;9.33;3.73;;;;;;;;;;10243902;28;20037;-69
2022/03/02 06:51:44;;;;;;;9.57;3.60;;;;;;;;;;10250714;28;20134;-68
2022/03/02 06:56:51;;;;;;;10.50;3.87;;;;;;;;;;10239839;28;20098;-68
2022/03/02 07:01:57;;;;;;;10.10;3.90;;;;;;;;;;10246277;28;20051;-68
2022/03/02 07:07:02;;;;;;;10.67;3.43;;;;;;;;;;10240294;28;20127;-69
2022/03/02 07:12:07;;;;;;;10.05;3.78;;;;;;;;;;10239192;28;20468;-69
2022/03/02 07:17:10;;;;;;;10.63;4.53;;;;;;;;;;10225671;28;20058;-71
2022/03/02 07:22:16;;;;;;;15.20;6.97;;;;;;;;;;10241683;28;20437;-70
2022/03/02 07:27:21;;;;;;;16.47;5.77;;;;;;;;;;10225655;28;20039;-66
2022/03/02 07:32:26;;;;;;;13.77;5.68;;;;;;;;;;10248394;28;20039;-71
2022/03/02 07:37:29;;;;;;;13.63;5.50;;;;;;;;;;10227020;28;20048;-69
2022/03/02 07:42:34;;;;;;;13.88;5.30;;;;;;;;;;10246483;28;20049;-70
2022/03/02 07:47:38;;;;;;;15.70;5.63;;;;;;;;;;10247526;28;20102;-71
2022/03/02 07:52:46;;;;;;;14.57;5.63;;;;;;;;;;10227522;28;20121;-70
2022/03/02 07:57:55;;;;;;;15.20;5.97;;;;;;;;;;10224184;28;20043;-69
2022/03/02 08:02:59;;;;;;;12.10;4.68;;;;;;;;;;10232940;28;20158;-69
2022/03/02 08:08:02;;;;;;;13.90;5.72;;;;;;;;;;10220850;28;20154;-69
2022/03/02 08:13:08;;;;;;;15.45;5.13;;;;;;;;;;10237979;28;20044;-69
2022/03/02 08:18:11;;;;;;;12.93;5.47;;;;;;;;;;10245425;28;20039;-69
2022/03/02 08:23:35;;;;;;;9.65;4.97;;;;;;;;;;10242967;28;20500;-71
2022/03/02 08:28:41;;;;;;;13.90;5.50;;;;;;;;;;10251185;28;20035;-71
2022/03/02 08:33:45;;;;;;;10.68;5.20;;;;;;;;;;10243856;28;20051;-70
2022/03/02 08:38:51;;;;;;;11.57;6.10;;;;;;;;;;10237089;28;20043;-70
2022/03/02 08:43:57;;;;;;;12.50;5.50;;;;;;;;;;10255881;28;20043;-67
2022/03/02 08:49:01;;;;;;;11.70;5.75;;;;;;;;;;10243436;28;20054;-67
2022/03/02 08:54:04;;;;;;;16.50;6.30;;;;;;;;;;10259636;28;20043;-70
2022/03/02 08:59:13;;;;;;;11.65;5.70;;;;;;;;;;10246780;28;20039;-70
2022/03/02 09:04:17;;;;;;;12.30;5.90;;;;;;;;;;10245641;28;20045;-69
2022/03/02 09:09:20;;;;;;;;;;;;;;;;;;10226855;28;20372;-70
2022/03/02 09:14:24;;;;;;;13.02;6.35;;;;;;;;;;10246729;28;19922;-71
2022/03/02 09:19:27;;;;;;;13.60;6.72;;;;;;;;;;10240764;28;20039;-69
2022/03/02 09:24:31;;;;;;;12.80;6.68;;;;;;;;;;10248816;28;20047;-70
2022/03/02 09:29:38;;;;;;;13.45;6.95;;;;;;;;;;10247878;28;20043;-70
2022/03/02 09:34:42;;;;;;;12.43;6.57;;;;;;;;;;10245009;28;20054;-68
2022/03/02 09:39:45;;;;;;;15.75;6.53;;;;;;;;;;10228763;28;20044;-69
2022/03/02 09:44:49;;;;;;;;;;;;;;;;;;10248549;28;20050;-69
2022/03/02 09:49:55;;;;;;;11.45;6.18;;;;;;;;;;10248892;28;19957;-68
2022/03/02 09:54:59;;;;;;;16.10;6.80;;;;;;;;;;10237414;28;20049;-68
2022/03/02 10:00:02;;;;;;;13.15;6.13;;;;;;;;;;10227624;28;20495;-71
2022/03/02 10:05:05;;;;;;;;;;;;;;;;;;10243384;28;20047;-70
2022/03/02 10:10:11;;;;;;;13.77;6.25;;;;;;;;;;10238939;28;19977;-69
2022/03/02 10:15:14;;;;;;;14.25;5.63;;;;;;;;;;10244220;28;20066;-68
2022/03/02 10:20:18;;;;;;;11.40;5.60;;;;;;;;;;10245437;28;20058;-70
2022/03/02 10:25:27;;;;;;;14.90;6.18;;;;;;;;;;10245010;28;20035;-70
2022/03/02 10:30:32;;;;;;;10.98;5.88;;;;;;;;;;10226200;28;20535;-71
2022/03/02 10:35:38;;;;;;;12.95;5.65;;;;;;;;;;10246603;28;20043;-71
2022/03/02 10:40:43;;;;;;;8.00;4.93;;;;;;;;;;10241622;28;20082;-69
2022/03/02 10:45:49;;;;;;;13.93;5.88;;;;;;;;;;10236135;28;20066;-69
2022/03/02 10:50:54;;;;;;;13.18;5.90;;;;;;;;;;10243877;28;20038;-69
2022/03/02 10:55:59;;;;;;;14.07;5.25;;;;;;;;;;10235976;28;20090;-70
2022/03/02 11:01:03;;;;;;;13.57;5.40;;;;;;;;;;10238910;28;20050;-69
2022/03/02 11:06:07;;;;;;;12.48;5.70;;;;;;;;;;10241255;28;20074;-70
2022/03/02 11:11:09;;;;;;;;;;;;;;;;;;10238678;28;20122;-70
2022/03/02 11:16:19;;;;;;;11.30;5.60;;;;;;;;;;10245573;28;19926;-71
2022/03/02 11:21:24;;;;;;;13.80;4.75;;;;;;;;;;10247181;28;20047;-69
2022/03/02 11:26:28;;;;;;;9.13;5.15;;;;;;;;;;10222612;28;20125;-70
2022/03/02 11:31:39;;;;;;;10.65;5.20;;;;;;;;;;10240988;28;20665;-71
2022/03/02 11:36:45;;;;;;;21.08;6.63;;;;;;;;;;10249934;28;20054;-70
2022/03/02 11:41:51;;;;;;;58.42;14.80;;;;;;;;;;10233753;28;20508;-68
2022/03/02 11:46:56;;;;;;;30.48;12.93;;;;;;;;;;10239363;28;20365;-69
2022/03/02 11:52:06;;;;;;;13.65;6.55;;;;;;;;;;10242461;28;20054;-69
2022/03/02 11:57:31;;;;;;;29.80;9.38;;;;;;;;;;10228424;28;20066;-68
2022/03/02 12:02:42;;;;;;;15.55;5.28;;;;;;;;;;10204739;29;20039;-69
2022/03/02 12:07:46;;;;;;;64.43;10.70;;;;;;;;;;10214788;29;20441;-70
2022/03/02 12:12:48;;;;;;;;;;;;;;;;;;10214465;29;20063;-70
2022/03/02 12:17:53;;;;;;;10.43;5.07;;;;;;;;;;10222802;28;19929;-72
2022/03/02 12:22:58;;;;;;;139.20;16.15;;;;;;;;;;10186799;29;20452;-71
2022/03/02 12:28:02;;;;;;;11.50;5.25;;;;;;;;;;10193649;29;20487;-71
2022/03/02 12:33:07;;;;;;;10.10;4.45;;;;;;;;;;10193977;29;20079;-71
2022/03/02 12:38:11;;;;;;;32.55;7.38;;;;;;;;;;10217778;29;20099;-69
2022/03/02 12:43:16;;;;;;;12.27;4.53;;;;;;;;;;10210383;29;20440;-70
2022/03/02 12:48:27;;;;;;;24.80;6.13;;;;;;;;;;10212347;29;20095;-70
2022/03/02 12:53:51;;;;;;;7.68;4.50;;;;;;;;;;10213897;29;20051;-72
2022/03/02 12:58:55;;;;;;;11.48;4.60;;;;;;;;;;10206108;29;20040;-69
2022/03/02 13:04:01;;;;;;;15.38;5.57;;;;;;;;;;10202394;29;20162;-70
2022/03/02 13:09:09;;;;;;;11.88;5.63;;;;;;;;;;10213948;28;20490;-69
2022/03/02 13:14:27;;;;;;;15.55;5.88;;;;;;;;;;10224926;29;20035;-70
2022/03/02 13:19:31;;;;;;;10.82;4.72;;;;;;;;;;10201650;29;20039;-69
2022/03/02 13:24:33;;;;;;;;;;;;;;;;;;10214199;29;20032;-69
2022/03/02 13:29:55;;;;;;;10.60;5.43;;;;;;;;;;10208513;29;19981;-71
2022/03/02 13:35:09;;;;;;;14.82;5.43;;;;;;;;;;10189455;29;20102;-71
2022/03/02 13:40:35;;;;;;;9.48;4.75;;;;;;;;;;10212709;29;20539;-70
2022/03/02 13:45:39;;;;;;;11.90;5.25;;;;;;;;;;10217710;29;20039;-70
2022/03/02 13:50:56;;;;;;;11.85;5.10;;;;;;;;;;10215234;29;20047;-71
2022/03/02 13:56:04;;;;;;;19.52;6.25;;;;;;;;;;10193927;29;20051;-69
2022/03/02 14:01:14;;;;;;;14.18;5.38;;;;;;;;;;10192975;29;20078;-69
2022/03/02 14:06:19;;;;;;;13.50;5.60;;;;;;;;;;10216349;29;20045;-70
2022/03/02 14:11:43;;;;;;;13.43;5.65;;;;;;;;;;10208567;29;20031;-70
2022/03/02 14:16:53;;;;;;;14.30;6.07;;;;;;;;;;10215319;29;20052;-70
2022/03/02 14:21:59;;;;;;;11.70;5.68;;;;;;;;;;10204610;29;20048;-71
2022/03/02 14:27:03;;;;;;;17.90;6.70;;;;;;;;;;10189575;29;20048;-70
2022/03/02 14:32:08;;;;;;;17.30;5.88;;;;;;;;;;10199434;29;20492;-71
2022/03/02 14:37:14;;;;;;;17.23;6.88;;;;;;;;;;10217148;29;20087;-70
2022/03/02 14:42:17;;;;;;;30.98;8.07;;;;;;;;;;10183664;29;20042;-69
2022/03/02 14:47:27;;;;;;;20.98;6.82;;;;;;;;;;10194080;29;20040;-71
2022/03/02 14:52:33;;;;;;;18.23;7.32;;;;;;;;;;10188346;29;20048;-71
2022/03/02 14:57:38;;;;;;;16.20;7.05;;;;;;;;;;10196375;29;20055;-70
2022/03/02 15:02:41;;;;;;;19.23;7.50;;;;;;;;;;10186319;29;20519;-70
2022/03/02 15:07:47;;;;;;;15.68;6.68;;;;;;;;;;10199801;29;20066;-70
2022/03/02 15:18:26;;;;;;;18.10;6.68;;;;;;;;;;10076988;29;20050;-69
2022/03/02 15:23:31;;;;;;;15.00;6.80;;;;;;;;;;10168259;29;20250;-70
2022/03/02 15:28:33;;;;;;;13.43;6.28;;;;;;;;;;10188259;29;20444;-70
2022/03/02 15:33:38;;;;;;;14.77;6.90;;;;;;;;;;10208756;29;20036;-70
2022/03/02 15:38:42;;;;;;;11.45;5.32;;;;;;;;;;10203765;29;20051;-71
2022/03/02 15:44:06;;;;;;;12.25;5.90;;;;;;;;;;10204480;29;20481;-71
2022/03/02 15:49:09;;;;;;;17.77;7.88;;;;;;;;;;10207696;29;20471;-71
2022/03/02 15:54:14;;;;;;;15.32;6.53;;;;;;;;;;10211963;29;20058;-71
2022/03/02 15:59:21;;;;;;;17.85;7.05;;;;;;;;;;10207062;29;20552;-70
2022/03/02 16:04:23;;;;;;;32.97;12.38;;;;;;;;;;10206804;29;20051;-69
2022/03/02 16:09:28;;;;;;;15.10;6.28;;;;;;;;;;10190283;29;20047;-70
2022/03/02 16:14:53;;;;;;;14.00;6.68;;;;;;;;;;10206389;29;20405;-72
2022/03/02 16:20:11;;;;;;;15.10;6.28;;;;;;;;;;10197182;29;20052;-69
2022/03/02 16:25:19;;;;;;;11.52;5.93;;;;;;;;;;10202744;29;20135;-70
2022/03/02 16:30:22;;;;;;;13.73;5.90;;;;;;;;;;10199491;29;20047;-70
2022/03/02 16:35:25;;;;;;;14.90;6.50;;;;;;;;;;10186497;29;20067;-71
2022/03/02 16:40:30;;;;;;;11.97;5.87;;;;;;;;;;10201075;29;20044;-70
2022/03/02 16:45:34;;;;;;;13.60;5.90;;;;;;;;;;10208053;28;20095;-72
2022/03/02 16:50:38;;;;;;;11.43;5.20;;;;;;;;;;10209402;29;20083;-69
2022/03/02 16:55:42;;;;;;;20.45;7.28;;;;;;;;;;10206151;29;20591;-70
2022/03/02 17:00:45;;;;;;;;;;;;;;;;;;10190257;29;20043;-70
2022/03/02 17:05:49;;;;;;;11.67;5.43;;;;;;;;;;10208362;29;19989;-72
2022/03/02 17:10:55;;;;;;;13.70;5.57;;;;;;;;;;10215181;28;20040;-70
2022/03/02 17:15:58;;;;;;;12.40;5.03;;;;;;;;;;10208700;29;20048;-70
2022/03/02 17:21:00;;;;;;;10.90;5.27;;;;;;;;;;10183909;29;20039;-71
2022/03/02 17:26:05;;;;;;;14.63;4.93;;;;;;;;;;10201568;29;20040;-70
2022/03/02 17:31:08;;;;;;;13.47;4.77;;;;;;;;;;10210426;29;20078;-71
2022/03/02 17:36:12;;;;;;;16.37;6.17;;;;;;;;;;10209808;29;20040;-71
2022/03/02 17:41:16;;;;;;;12.83;5.40;;;;;;;;;;10207680;29;20044;-70
2022/03/02 17:46:19;;;;;;;14.43;5.93;;;;;;;;;;10198053;29;20086;-69
2022/03/02 17:51:32;;;;;;;13.77;5.03;;;;;;;;;;10192325;29;20046;-69
2022/03/02 17:56:37;;;;;;;13.67;5.30;;;;;;;;;;10203238;29;20074;-71
2022/03/02 18:01:40;;;;;;;10.43;4.97;;;;;;;;;;10268496;23;20082;-67
2022/03/02 18:06:43;;;;;;;9.03;4.67;;;;;;;;;;10264563;28;20472;-67
2022/03/02 18:11:47;;;;;;;12.03;4.83;;;;;;;;;;10266892;28;20138;-68
2022/03/02 18:16:50;;;;;;;;;;;;;;;;;;10275460;28;20059;-68
2022/03/02 18:21:53;;;;;;;12.43;4.57;;;;;;;;;;10287098;28;20004;-67
2022/03/02 18:27:03;;;;;;;9.87;4.77;;;;;;;;;;10272590;28;20046;-66
2022/03/02 18:32:07;;;;;;;19.30;7.70;;;;;;;;;;10253431;28;20106;-66
2022/03/02 18:37:10;;;;;;;14.63;5.72;;;;;;;;;;10291702;28;20106;-67
2022/03/02 18:42:14;;;;;;;10.27;2.70;;;;;;;;;;10279380;28;20051;-67
2022/03/02 18:47:17;;;;;;;14.60;4.93;;;;;;;;;;10276164;28;20117;-65
2022/03/02 18:52:21;;;;;;;11.53;3.60;;;;;;;;;;10284483;28;20046;-67
2022/03/02 18:57:25;;;;;;;14.40;5.30;;;;;;;;;;10289153;28;20117;-66
2022/03/02 19:02:28;;;;;;;12.25;5.18;;;;;;;;;;10261805;28;20046;-66
2022/03/02 19:07:31;;;;;;;15.67;5.03;;;;;;;;;;10265682;28;20067;-68
2022/03/02 19:12:36;;;;;;;19.55;6.90;;;;;;;;;;10261261;28;20420;-67
2022/03/02 19:17:39;;;;;;;16.57;5.27;;;;;;;;;;10265123;28;20051;-66
2022/03/02 19:22:44;;;;;;;13.38;5.75;;;;;;;;;;10285033;28;20101;-64
2022/03/02 19:27:49;;;;;;;10.67;4.83;;;;;;;;;;10281432;28;20054;-66
2022/03/02 19:32:52;;;;;;;11.77;5.20;;;;;;;;;;10272347;28;20499;-68
2022/03/02 19:37:55;;;;;;;11.40;4.53;;;;;;;;;;10269280;28;20102;-67
2022/03/02 19:42:59;;;;;;;15.33;5.23;;;;;;;;;;10259208;28;20058;-67
2022/03/02 19:48:04;;;;;;;;;;;;;;;;;;10290484;28;20134;-65
2022/03/02 19:53:06;;;;;;;;;;;;;;;;;;10266480;28;20017;-65
2022/03/02 19:58:12;;;;;;;11.47;4.80;;;;;;;;;;10294612;28;20054;-67
2022/03/02 20:03:16;;;;;;;13.17;5.57;;;;;;;;;;10271043;28;20066;-66
2022/03/02 20:08:19;;;;;;;14.15;5.82;;;;;;;;;;10281550;28;20413;-67
2022/03/02 20:13:25;;;;;;;13.50;5.33;;;;;;;;;;10285078;28;20110;-68
2022/03/02 20:18:27;;;;;;;16.97;5.40;;;;;;;;;;10279010;28;20101;-68
2022/03/02 20:23:31;;;;;;;13.23;5.37;;;;;;;;;;10285228;28;20109;-68
2022/03/02 20:28:35;;;;;;;14.50;5.05;;;;;;;;;;10296946;28;20482;-65
2022/03/02 20:33:38;;;;;;;14.75;5.88;;;;;;;;;;10272558;28;20038;-66
2022/03/02 20:38:41;;;;;;;13.70;5.33;;;;;;;;;;10287210;28;20078;-65
2022/03/02 20:43:45;;;;;;;14.93;6.73;;;;;;;;;;10282336;28;20043;-68
2022/03/02 20:48:48;;;;;;;;;;;;;;;;;;10290812;28;20047;-66
2022/03/02 20:53:51;;;;;;;15.87;6.00;;;;;;;;;;10281964;28;20301;-67
2022/03/02 20:58:55;;;;;;;14.50;5.67;;;;;;;;;;10287062;28;20454;-67
2022/03/02 21:03:59;;;;;;;15.90;5.77;;;;;;;;;;10281872;28;20039;-65
2022/03/02 21:09:03;;;;;;;16.23;5.95;;;;;;;;;;10294056;28;20031;-67
2022/03/02 21:14:07;;;;;;;14.97;5.83;;;;;;;;;;10278136;28;20049;-67
2022/03/02 21:19:11;;;;;;;17.50;6.03;;;;;;;;;;10272090;28;20038;-67
2022/03/02 21:24:15;;;;;;;14.50;5.68;;;;;;;;;;10277219;28;20034;-66
2022/03/02 21:29:20;;;;;;;11.23;4.68;;;;;;;;;;10279993;28;20041;-67
2022/03/02 21:34:25;;;;;;;18.33;6.60;;;;;;;;;;10273907;28;20106;-67
2022/03/02 21:39:28;;;;;;;;;;;;;;;;;;10265474;28;20046;-67
2022/03/02 21:44:35;;;;;;;12.97;5.30;;;;;;;;;;10257348;28;19922;-66
2022/03/02 21:49:38;;;;;;;13.43;5.73;;;;;;;;;;10275478;28;20089;-66
2022/03/02 21:54:42;;;;;;;;;;;;;;;;;;10268995;28;20058;-66
2022/03/02 21:59:47;;;;;;;16.73;6.13;;;;;;;;;;10278069;28;19926;-63
2022/03/02 22:04:50;;;;;;;15.43;5.57;;;;;;;;;;10266482;28;20043;-66
2022/03/02 22:09:53;;;;;;;20.70;6.73;;;;;;;;;;10279648;28;20039;-67
2022/03/02 22:15:00;;;;;;;21.77;6.95;;;;;;;;;;10263016;28;20398;-66
2022/03/02 22:20:04;;;;;;;13.37;5.50;;;;;;;;;;10279774;28;20051;-66
2022/03/02 22:25:08;;;;;;;16.63;5.78;;;;;;;;;;10267130;28;20474;-67
2022/03/02 22:30:12;;;;;;;14.50;6.25;;;;;;;;;;10258995;28;20411;-66
2022/03/02 22:35:15;;;;;;;13.67;5.07;;;;;;;;;;10266198;28;20121;-67
2022/03/02 22:40:18;;;;;;;14.07;5.10;;;;;;;;;;10270927;28;20489;-67
2022/03/02 22:45:22;;;;;;;17.20;6.00;;;;;;;;;;10274337;28;20404;-66
2022/03/02 22:50:25;;;;;;;14.43;5.83;;;;;;;;;;10272342;28;20050;-66
2022/03/02 22:55:30;;;;;;;14.40;6.30;;;;;;;;;;10286825;28;20042;-66
2022/03/02 23:00:48;;;;;;;16.27;5.40;;;;;;;;;;10280306;28;20039;-66
2022/03/02 23:16:34;;;;;;;18.50;5.80;;;;;;;;;;10290016;28;20367;-65
2022/03/02 23:21:39;;;;;;;17.77;5.90;;;;;;;;;;10288311;28;20121;-66
2022/03/02 23:26:41;;;;;;;12.63;5.10;;;;;;;;;;10288967;28;20399;-66
2022/03/02 23:31:44;;;;;;;16.47;6.60;;;;;;;;;;10280898;28;20041;-64
2022/03/02 23:36:49;;;;;;;17.10;5.73;;;;;;;;;;10272628;28;20045;-66
2022/03/02 23:41:52;;;;;;;21.07;6.07;;;;;;;;;;10268761;28;20097;-66
2022/03/02 23:46:55;;;;;;;18.50;4.60;;;;;;;;;;10273970;28;20042;-66
2022/03/02 23:51:59;;;;;;;21.40;5.60;;;;;;;;;;10249249;28;20065;-65
2022/03/02 23:57:02;;;;;;;20.38;6.60;;;;;;;;;;10291154;28;20051;-64
